sensor_id;sensor_type;location;lat;lon;timestamp;P1;durP1;ratioP1;P2;durP2;ratioP2
21114;SDS011;10715;48.546;9.896;2024-03-06T00:01:16;9.27;;;4.73;;
21114;SDS011;10715;48.546;9.896;2024-03-06T00:03:42;8.00;;;6.23;;
21114;SDS011;10715;48.546;9.896;2024-03-06T00:06:07;4.60;;;4.10;;
21114;SDS011;10715;48.546;9.896;2024-03-06T00:08:36;5.90;;;4.47;;
21114;SDS011;10715;48.546;9.896;2024-03-06T00:11:02;8.27;;;5.83;;
21114;SDS011;10715;48.546;9.896;2024-03-06T00:13:28;5.50;;;4.40;;
21114;SDS011;10715;48.546;9.896;2024-03-06T00:15:53;5.70;;;4.20;;
21114;SDS011;10715;48.546;9.896;2024-03-06T00:18:19;7.73;;;5.03;;
21114;SDS011;10715;48.546;9.896;2024-03-06T00:20:45;4.57;;;4.10;;
21114;SDS011;10715;48.546;9.896;2024-03-06T00:23:10;7.10;;;4.70;;
21114;SDS011;10715;48.546;9.896;2024-03-06T00:25:36;8.93;;;3.93;;
21114;SDS011;10715;48.546;9.896;2024-03-06T00:28:02;11.40;;;4.40;;
21114;SDS011;10715;48.546;9.896;2024-03-06T00:30:28;6.70;;;4.17;;
21114;SDS011;10715;48.546;9.896;2024-03-06T00:32:53;7.90;;;5.00;;
21114;SDS011;10715;48.546;9.896;2024-03-06T00:35:19;5.93;;;5.40;;
21114;SDS011;10715;48.546;9.896;2024-03-06T00:37:45;9.70;;;5.90;;
21114;SDS011;10715;48.546;9.896;2024-03-06T00:40:11;6.97;;;5.50;;
21114;SDS011;10715;48.546;9.896;2024-03-06T00:42:37;7.27;;;5.23;;
21114;SDS011;10715;48.546;9.896;2024-03-06T00:45:05;7.70;;;5.63;;
21114;SDS011;10715;48.546;9.896;2024-03-06T00:47:31;6.87;;;5.83;;
21114;SDS011;10715;48.546;9.896;2024-03-06T00:49:59;12.57;;;6.27;;
21114;SDS011;10715;48.546;9.896;2024-03-06T00:52:25;8.50;;;7.70;;
21114;SDS011;10715;48.546;9.896;2024-03-06T00:54:50;17.67;;;9.87;;
21114;SDS011;10715;48.546;9.896;2024-03-06T00:57:16;16.07;;;11.07;;
21114;SDS011;10715;48.546;9.896;2024-03-06T00:59:42;20.20;;;11.30;;
21114;SDS011;10715;48.546;9.896;2024-03-06T01:02:07;18.97;;;10.63;;
21114;SDS011;10715;48.546;9.896;2024-03-06T01:04:33;20.40;;;11.27;;
21114;SDS011;10715;48.546;9.896;2024-03-06T01:06:59;19.97;;;12.60;;
21114;SDS011;10715;48.546;9.896;2024-03-06T01:09:24;20.80;;;11.80;;
21114;SDS011;10715;48.546;9.896;2024-03-06T01:11:52;24.20;;;10.33;;
21114;SDS011;10715;48.546;9.896;2024-03-06T01:14:18;19.83;;;12.83;;
21114;SDS011;10715;48.546;9.896;2024-03-06T01:16:44;19.10;;;10.80;;
21114;SDS011;10715;48.546;9.896;2024-03-06T01:19:09;19.53;;;12.50;;
21114;SDS011;10715;48.546;9.896;2024-03-06T01:21:35;14.63;;;11.80;;
21114;SDS011;10715;48.546;9.896;2024-03-06T01:24:01;20.53;;;10.60;;
21114;SDS011;10715;48.546;9.896;2024-03-06T01:26:27;16.57;;;13.33;;
21114;SDS011;10715;48.546;9.896;2024-03-06T01:28:53;14.47;;;10.30;;
21114;SDS011;10715;48.546;9.896;2024-03-06T01:31:18;18.27;;;11.80;;
21114;SDS011;10715;48.546;9.896;2024-03-06T01:33:44;14.33;;;10.13;;
21114;SDS011;10715;48.546;9.896;2024-03-06T01:36:10;17.93;;;12.10;;
21114;SDS011;10715;48.546;9.896;2024-03-06T01:38:35;20.40;;;10.97;;
21114;SDS011;10715;48.546;9.896;2024-03-06T01:41:01;15.47;;;9.90;;
21114;SDS011;10715;48.546;9.896;2024-03-06T01:43:27;18.90;;;10.27;;
21114;SDS011;10715;48.546;9.896;2024-03-06T01:45:52;14.53;;;10.33;;
21114;SDS011;10715;48.546;9.896;2024-03-06T01:48:23;23.40;;;12.57;;
21114;SDS011;10715;48.546;9.896;2024-03-06T01:50:55;14.10;;;9.13;;
21114;SDS011;10715;48.546;9.896;2024-03-06T01:53:22;19.30;;;10.90;;
21114;SDS011;10715;48.546;9.896;2024-03-06T01:55:51;31.47;;;10.43;;
21114;SDS011;10715;48.546;9.896;2024-03-06T01:58:17;18.90;;;10.53;;
21114;SDS011;10715;48.546;9.896;2024-03-06T02:00:43;16.33;;;9.80;;
21114;SDS011;10715;48.546;9.896;2024-03-06T02:03:09;19.43;;;11.43;;
21114;SDS011;10715;48.546;9.896;2024-03-06T02:05:36;24.00;;;12.57;;
21114;SDS011;10715;48.546;9.896;2024-03-06T02:08:02;25.80;;;11.27;;
21114;SDS011;10715;48.546;9.896;2024-03-06T02:10:29;13.07;;;9.10;;
21114;SDS011;10715;48.546;9.896;2024-03-06T02:12:55;20.97;;;10.03;;
21114;SDS011;10715;48.546;9.896;2024-03-06T02:15:21;17.40;;;9.10;;
21114;SDS011;10715;48.546;9.896;2024-03-06T02:17:48;14.83;;;9.20;;
21114;SDS011;10715;48.546;9.896;2024-03-06T02:20:14;13.37;;;9.73;;
21114;SDS011;10715;48.546;9.896;2024-03-06T02:22:41;15.50;;;9.23;;
21114;SDS011;10715;48.546;9.896;2024-03-06T02:25:06;13.57;;;9.50;;
21114;SDS011;10715;48.546;9.896;2024-03-06T02:27:32;15.87;;;9.00;;
21114;SDS011;10715;48.546;9.896;2024-03-06T02:29:58;14.03;;;8.97;;
21114;SDS011;10715;48.546;9.896;2024-03-06T02:32:24;18.90;;;10.90;;
21114;SDS011;10715;48.546;9.896;2024-03-06T02:34:50;16.80;;;9.73;;
21114;SDS011;10715;48.546;9.896;2024-03-06T02:37:16;14.53;;;10.00;;
21114;SDS011;10715;48.546;9.896;2024-03-06T02:39:42;15.37;;;10.30;;
21114;SDS011;10715;48.546;9.896;2024-03-06T02:42:08;15.60;;;10.97;;
21114;SDS011;10715;48.546;9.896;2024-03-06T02:44:34;13.13;;;8.53;;
21114;SDS011;10715;48.546;9.896;2024-03-06T02:46:59;11.37;;;9.07;;
21114;SDS011;10715;48.546;9.896;2024-03-06T02:49:25;14.30;;;8.10;;
21114;SDS011;10715;48.546;9.896;2024-03-06T02:51:51;15.90;;;9.80;;
21114;SDS011;10715;48.546;9.896;2024-03-06T02:54:16;15.50;;;9.33;;
21114;SDS011;10715;48.546;9.896;2024-03-06T02:56:42;12.70;;;9.20;;
21114;SDS011;10715;48.546;9.896;2024-03-06T02:59:08;11.27;;;8.20;;
21114;SDS011;10715;48.546;9.896;2024-03-06T03:01:34;15.77;;;10.93;;
21114;SDS011;10715;48.546;9.896;2024-03-06T03:03:59;11.80;;;8.73;;
21114;SDS011;10715;48.546;9.896;2024-03-06T03:06:25;12.27;;;8.70;;
21114;SDS011;10715;48.546;9.896;2024-03-06T03:08:51;14.87;;;9.40;;
21114;SDS011;10715;48.546;9.896;2024-03-06T03:11:17;11.93;;;9.70;;
21114;SDS011;10715;48.546;9.896;2024-03-06T03:13:42;16.57;;;9.47;;
21114;SDS011;10715;48.546;9.896;2024-03-06T03:16:15;16.70;;;8.47;;
21114;SDS011;10715;48.546;9.896;2024-03-06T03:18:45;16.40;;;9.10;;
21114;SDS011;10715;48.546;9.896;2024-03-06T03:21:11;11.83;;;10.37;;
21114;SDS011;10715;48.546;9.896;2024-03-06T03:23:38;15.90;;;8.80;;
21114;SDS011;10715;48.546;9.896;2024-03-06T03:26:05;12.70;;;9.37;;
21114;SDS011;10715;48.546;9.896;2024-03-06T03:28:31;12.57;;;8.67;;
21114;SDS011;10715;48.546;9.896;2024-03-06T03:30:57;15.13;;;8.00;;
21114;SDS011;10715;48.546;9.896;2024-03-06T03:33:23;9.70;;;7.17;;
21114;SDS011;10715;48.546;9.896;2024-03-06T03:35:49;12.93;;;8.87;;
21114;SDS011;10715;48.546;9.896;2024-03-06T03:38:15;10.57;;;7.20;;
21114;SDS011;10715;48.546;9.896;2024-03-06T03:40:41;13.97;;;8.33;;
21114;SDS011;10715;48.546;9.896;2024-03-06T03:43:07;12.63;;;8.60;;
21114;SDS011;10715;48.546;9.896;2024-03-06T03:45:34;10.90;;;7.77;;
21114;SDS011;10715;48.546;9.896;2024-03-06T03:48:01;13.73;;;8.60;;
21114;SDS011;10715;48.546;9.896;2024-03-06T03:50:30;13.00;;;8.00;;
21114;SDS011;10715;48.546;9.896;2024-03-06T03:52:56;15.47;;;8.30;;
21114;SDS011;10715;48.546;9.896;2024-03-06T03:55:26;10.13;;;7.70;;
21114;SDS011;10715;48.546;9.896;2024-03-06T03:57:52;14.90;;;8.67;;
21114;SDS011;10715;48.546;9.896;2024-03-06T04:00:18;11.40;;;7.97;;
21114;SDS011;10715;48.546;9.896;2024-03-06T04:02:44;11.23;;;8.90;;
21114;SDS011;10715;48.546;9.896;2024-03-06T04:05:10;15.10;;;8.80;;
21114;SDS011;10715;48.546;9.896;2024-03-06T04:07:36;15.67;;;9.67;;
21114;SDS011;10715;48.546;9.896;2024-03-06T04:10:02;9.10;;;7.27;;
21114;SDS011;10715;48.546;9.896;2024-03-06T04:12:28;14.37;;;9.70;;
21114;SDS011;10715;48.546;9.896;2024-03-06T04:14:54;13.83;;;8.30;;
21114;SDS011;10715;48.546;9.896;2024-03-06T04:17:20;13.97;;;8.50;;
21114;SDS011;10715;48.546;9.896;2024-03-06T04:19:46;11.13;;;8.27;;
21114;SDS011;10715;48.546;9.896;2024-03-06T04:22:13;10.83;;;6.60;;
21114;SDS011;10715;48.546;9.896;2024-03-06T04:24:42;14.33;;;7.93;;
21114;SDS011;10715;48.546;9.896;2024-03-06T04:27:08;11.63;;;8.60;;
21114;SDS011;10715;48.546;9.896;2024-03-06T04:29:34;11.80;;;7.90;;
21114;SDS011;10715;48.546;9.896;2024-03-06T04:32:00;10.60;;;6.97;;
21114;SDS011;10715;48.546;9.896;2024-03-06T04:34:26;10.73;;;6.93;;
21114;SDS011;10715;48.546;9.896;2024-03-06T04:36:52;11.00;;;7.90;;
21114;SDS011;10715;48.546;9.896;2024-03-06T04:39:18;11.97;;;7.50;;
21114;SDS011;10715;48.546;9.896;2024-03-06T04:41:43;7.50;;;5.70;;
21114;SDS011;10715;48.546;9.896;2024-03-06T04:44:09;9.47;;;8.03;;
21114;SDS011;10715;48.546;9.896;2024-03-06T04:46:35;9.50;;;6.53;;
21114;SDS011;10715;48.546;9.896;2024-03-06T04:49:00;6.53;;;5.77;;
21114;SDS011;10715;48.546;9.896;2024-03-06T04:51:26;10.30;;;6.63;;
21114;SDS011;10715;48.546;9.896;2024-03-06T04:53:52;6.93;;;5.47;;
21114;SDS011;10715;48.546;9.896;2024-03-06T04:56:17;7.10;;;6.30;;
21114;SDS011;10715;48.546;9.896;2024-03-06T04:58:45;10.00;;;5.00;;
21114;SDS011;10715;48.546;9.896;2024-03-06T05:01:11;5.60;;;4.97;;
21114;SDS011;10715;48.546;9.896;2024-03-06T05:03:38;7.03;;;6.33;;
21114;SDS011;10715;48.546;9.896;2024-03-06T05:06:04;5.30;;;4.03;;
21114;SDS011;10715;48.546;9.896;2024-03-06T05:08:31;10.43;;;6.43;;
21114;SDS011;10715;48.546;9.896;2024-03-06T05:10:57;4.70;;;3.67;;
21114;SDS011;10715;48.546;9.896;2024-03-06T05:13:24;5.47;;;3.97;;
21114;SDS011;10715;48.546;9.896;2024-03-06T05:15:51;8.60;;;5.33;;
21114;SDS011;10715;48.546;9.896;2024-03-06T05:18:17;8.80;;;4.83;;
21114;SDS011;10715;48.546;9.896;2024-03-06T05:20:44;8.30;;;5.67;;
21114;SDS011;10715;48.546;9.896;2024-03-06T05:23:11;6.37;;;5.17;;
21114;SDS011;10715;48.546;9.896;2024-03-06T05:25:37;7.00;;;5.00;;
21114;SDS011;10715;48.546;9.896;2024-03-06T05:28:04;5.40;;;4.60;;
21114;SDS011;10715;48.546;9.896;2024-03-06T05:30:30;8.10;;;5.47;;
21114;SDS011;10715;48.546;9.896;2024-03-06T05:32:56;9.20;;;5.00;;
21114;SDS011;10715;48.546;9.896;2024-03-06T05:35:21;5.07;;;4.17;;
21114;SDS011;10715;48.546;9.896;2024-03-06T05:37:47;8.50;;;5.83;;
21114;SDS011;10715;48.546;9.896;2024-03-06T05:40:13;4.73;;;3.50;;
21114;SDS011;10715;48.546;9.896;2024-03-06T05:42:40;6.97;;;5.53;;
21114;SDS011;10715;48.546;9.896;2024-03-06T05:45:07;6.70;;;4.70;;
21114;SDS011;10715;48.546;9.896;2024-03-06T05:47:38;5.40;;;3.90;;
21114;SDS011;10715;48.546;9.896;2024-03-06T05:50:06;4.40;;;4.00;;
21114;SDS011;10715;48.546;9.896;2024-03-06T05:52:33;4.70;;;4.27;;
21114;SDS011;10715;48.546;9.896;2024-03-06T05:55:02;7.07;;;5.20;;
21114;SDS011;10715;48.546;9.896;2024-03-06T05:57:31;5.87;;;4.10;;
21114;SDS011;10715;48.546;9.896;2024-03-06T05:59:57;5.90;;;4.57;;
21114;SDS011;10715;48.546;9.896;2024-03-06T06:02:23;6.60;;;4.47;;
21114;SDS011;10715;48.546;9.896;2024-03-06T06:04:48;7.17;;;5.50;;
21114;SDS011;10715;48.546;9.896;2024-03-06T06:07:14;5.30;;;4.40;;
21114;SDS011;10715;48.546;9.896;2024-03-06T06:09:41;4.90;;;4.40;;
21114;SDS011;10715;48.546;9.896;2024-03-06T06:12:06;4.23;;;3.83;;
21114;SDS011;10715;48.546;9.896;2024-03-06T06:14:32;5.83;;;4.43;;
21114;SDS011;10715;48.546;9.896;2024-03-06T06:16:58;9.17;;;5.43;;
21114;SDS011;10715;48.546;9.896;2024-03-06T06:19:23;9.23;;;6.10;;
21114;SDS011;10715;48.546;9.896;2024-03-06T06:21:51;8.80;;;5.83;;
21114;SDS011;10715;48.546;9.896;2024-03-06T06:24:19;7.13;;;6.43;;
21114;SDS011;10715;48.546;9.896;2024-03-06T06:26:44;8.47;;;5.80;;
21114;SDS011;10715;48.546;9.896;2024-03-06T06:29:10;11.43;;;7.37;;
21114;SDS011;10715;48.546;9.896;2024-03-06T06:31:36;13.93;;;9.13;;
21114;SDS011;10715;48.546;9.896;2024-03-06T06:34:01;14.97;;;8.93;;
21114;SDS011;10715;48.546;9.896;2024-03-06T06:36:27;10.50;;;8.00;;
21114;SDS011;10715;48.546;9.896;2024-03-06T06:38:53;9.30;;;7.73;;
21114;SDS011;10715;48.546;9.896;2024-03-06T06:41:19;8.67;;;5.27;;
21114;SDS011;10715;48.546;9.896;2024-03-06T06:43:45;10.13;;;7.40;;
21114;SDS011;10715;48.546;9.896;2024-03-06T06:46:11;8.40;;;6.20;;
21114;SDS011;10715;48.546;9.896;2024-03-06T06:48:36;8.13;;;7.00;;
21114;SDS011;10715;48.546;9.896;2024-03-06T06:51:02;9.77;;;7.40;;
21114;SDS011;10715;48.546;9.896;2024-03-06T06:53:29;14.60;;;6.97;;
21114;SDS011;10715;48.546;9.896;2024-03-06T06:55:55;6.30;;;5.70;;
21114;SDS011;10715;48.546;9.896;2024-03-06T06:58:21;12.17;;;7.60;;
21114;SDS011;10715;48.546;9.896;2024-03-06T07:00:47;10.07;;;7.10;;
21114;SDS011;10715;48.546;9.896;2024-03-06T07:03:13;9.03;;;7.40;;
21114;SDS011;10715;48.546;9.896;2024-03-06T07:05:39;8.73;;;6.63;;
21114;SDS011;10715;48.546;9.896;2024-03-06T07:08:06;13.33;;;7.10;;
21114;SDS011;10715;48.546;9.896;2024-03-06T07:10:32;8.90;;;6.37;;
21114;SDS011;10715;48.546;9.896;2024-03-06T07:13:00;9.80;;;6.90;;
21114;SDS011;10715;48.546;9.896;2024-03-06T07:15:25;12.23;;;6.90;;
21114;SDS011;10715;48.546;9.896;2024-03-06T07:17:51;13.23;;;7.90;;
21114;SDS011;10715;48.546;9.896;2024-03-06T07:20:17;9.70;;;7.37;;
21114;SDS011;10715;48.546;9.896;2024-03-06T07:22:43;10.63;;;7.13;;
21114;SDS011;10715;48.546;9.896;2024-03-06T07:25:08;9.17;;;7.37;;
21114;SDS011;10715;48.546;9.896;2024-03-06T07:27:34;12.30;;;7.90;;
21114;SDS011;10715;48.546;9.896;2024-03-06T07:30:01;6.87;;;6.17;;
21114;SDS011;10715;48.546;9.896;2024-03-06T07:32:27;8.33;;;6.20;;
21114;SDS011;10715;48.546;9.896;2024-03-06T07:34:52;10.37;;;6.50;;
21114;SDS011;10715;48.546;9.896;2024-03-06T07:37:18;10.93;;;8.07;;
21114;SDS011;10715;48.546;9.896;2024-03-06T07:39:44;10.10;;;8.10;;
21114;SDS011;10715;48.546;9.896;2024-03-06T07:42:10;11.27;;;7.57;;
21114;SDS011;10715;48.546;9.896;2024-03-06T07:44:36;12.07;;;8.00;;
21114;SDS011;10715;48.546;9.896;2024-03-06T07:47:02;10.40;;;7.13;;
21114;SDS011;10715;48.546;9.896;2024-03-06T07:49:28;16.60;;;8.23;;
21114;SDS011;10715;48.546;9.896;2024-03-06T07:51:54;9.70;;;7.30;;
21114;SDS011;10715;48.546;9.896;2024-03-06T07:54:20;15.60;;;7.50;;
21114;SDS011;10715;48.546;9.896;2024-03-06T07:56:46;8.27;;;6.53;;
21114;SDS011;10715;48.546;9.896;2024-03-06T07:59:13;9.17;;;7.27;;
21114;SDS011;10715;48.546;9.896;2024-03-06T08:01:40;13.13;;;7.10;;
21114;SDS011;10715;48.546;9.896;2024-03-06T08:04:06;10.30;;;7.33;;
21114;SDS011;10715;48.546;9.896;2024-03-06T08:06:31;8.20;;;7.40;;
21114;SDS011;10715;48.546;9.896;2024-03-06T08:08:58;9.10;;;6.60;;
21114;SDS011;10715;48.546;9.896;2024-03-06T08:11:24;19.37;;;9.23;;
21114;SDS011;10715;48.546;9.896;2024-03-06T08:13:56;11.93;;;6.60;;
21114;SDS011;10715;48.546;9.896;2024-03-06T08:16:22;10.83;;;8.20;;
21114;SDS011;10715;48.546;9.896;2024-03-06T08:18:48;12.83;;;8.80;;
21114;SDS011;10715;48.546;9.896;2024-03-06T08:21:14;13.23;;;8.23;;
21114;SDS011;10715;48.546;9.896;2024-03-06T08:23:40;9.60;;;7.23;;
21114;SDS011;10715;48.546;9.896;2024-03-06T08:26:05;12.80;;;8.23;;
21114;SDS011;10715;48.546;9.896;2024-03-06T08:28:31;23.60;;;6.67;;
21114;SDS011;10715;48.546;9.896;2024-03-06T08:30:57;11.33;;;7.97;;
21114;SDS011;10715;48.546;9.896;2024-03-06T08:33:22;16.90;;;7.93;;
21114;SDS011;10715;48.546;9.896;2024-03-06T08:35:49;7.77;;;6.70;;
21114;SDS011;10715;48.546;9.896;2024-03-06T08:38:15;12.60;;;8.23;;
21114;SDS011;10715;48.546;9.896;2024-03-06T08:40:42;12.13;;;8.53;;
21114;SDS011;10715;48.546;9.896;2024-03-06T08:43:10;9.43;;;6.13;;
21114;SDS011;10715;48.546;9.896;2024-03-06T08:45:38;10.67;;;7.23;;
21114;SDS011;10715;48.546;9.896;2024-03-06T08:48:03;14.07;;;9.53;;
21114;SDS011;10715;48.546;9.896;2024-03-06T08:50:30;10.30;;;8.00;;
21114;SDS011;10715;48.546;9.896;2024-03-06T08:52:56;9.13;;;6.73;;
21114;SDS011;10715;48.546;9.896;2024-03-06T08:55:22;13.20;;;8.60;;
21114;SDS011;10715;48.546;9.896;2024-03-06T08:57:48;9.63;;;7.27;;
21114;SDS011;10715;48.546;9.896;2024-03-06T09:00:15;11.03;;;7.53;;
21114;SDS011;10715;48.546;9.896;2024-03-06T09:02:42;10.37;;;7.10;;
21114;SDS011;10715;48.546;9.896;2024-03-06T09:05:08;12.00;;;6.80;;
21114;SDS011;10715;48.546;9.896;2024-03-06T09:07:38;10.60;;;6.63;;
21114;SDS011;10715;48.546;9.896;2024-03-06T09:10:08;8.93;;;7.43;;
21114;SDS011;10715;48.546;9.896;2024-03-06T09:12:36;16.27;;;9.30;;
21114;SDS011;10715;48.546;9.896;2024-03-06T09:15:02;10.73;;;7.70;;
21114;SDS011;10715;48.546;9.896;2024-03-06T09:17:28;23.43;;;9.50;;
21114;SDS011;10715;48.546;9.896;2024-03-06T09:19:54;18.27;;;7.00;;
21114;SDS011;10715;48.546;9.896;2024-03-06T09:22:20;16.83;;;7.30;;
21114;SDS011;10715;48.546;9.896;2024-03-06T09:24:46;10.00;;;7.53;;
21114;SDS011;10715;48.546;9.896;2024-03-06T09:27:13;12.23;;;6.47;;
21114;SDS011;10715;48.546;9.896;2024-03-06T09:29:39;6.27;;;5.67;;
21114;SDS011;10715;48.546;9.896;2024-03-06T09:32:06;9.13;;;5.50;;
21114;SDS011;10715;48.546;9.896;2024-03-06T09:34:31;11.10;;;9.63;;
21114;SDS011;10715;48.546;9.896;2024-03-06T09:36:57;11.73;;;6.30;;
21114;SDS011;10715;48.546;9.896;2024-03-06T09:39:23;9.53;;;6.30;;
21114;SDS011;10715;48.546;9.896;2024-03-06T09:41:51;6.77;;;5.13;;
21114;SDS011;10715;48.546;9.896;2024-03-06T09:44:18;8.97;;;5.60;;
21114;SDS011;10715;48.546;9.896;2024-03-06T09:46:45;8.87;;;5.60;;
21114;SDS011;10715;48.546;9.896;2024-03-06T09:49:13;7.83;;;5.63;;
21114;SDS011;10715;48.546;9.896;2024-03-06T09:51:44;8.87;;;6.17;;
21114;SDS011;10715;48.546;9.896;2024-03-06T09:54:11;6.87;;;6.13;;
21114;SDS011;10715;48.546;9.896;2024-03-06T09:56:41;9.17;;;6.47;;
21114;SDS011;10715;48.546;9.896;2024-03-06T09:59:11;9.80;;;5.70;;
21114;SDS011;10715;48.546;9.896;2024-03-06T10:01:39;9.97;;;6.33;;
21114;SDS011;10715;48.546;9.896;2024-03-06T10:04:24;8.20;;;6.23;;
21114;SDS011;10715;48.546;9.896;2024-03-06T10:06:52;7.13;;;6.10;;
21114;SDS011;10715;48.546;9.896;2024-03-06T10:09:22;9.77;;;7.00;;
21114;SDS011;10715;48.546;9.896;2024-03-06T10:11:48;6.63;;;5.50;;
21114;SDS011;10715;48.546;9.896;2024-03-06T10:14:14;6.10;;;5.57;;
21114;SDS011;10715;48.546;9.896;2024-03-06T10:16:53;8.43;;;6.17;;
21114;SDS011;10715;48.546;9.896;2024-03-06T10:19:21;5.80;;;5.10;;
21114;SDS011;10715;48.546;9.896;2024-03-06T10:21:48;6.33;;;4.97;;
21114;SDS011;10715;48.546;9.896;2024-03-06T10:26:45;7.57;;;6.67;;
21114;SDS011;10715;48.546;9.896;2024-03-06T10:29:15;4.57;;;4.30;;
21114;SDS011;10715;48.546;9.896;2024-03-06T10:31:46;15.97;;;5.20;;
21114;SDS011;10715;48.546;9.896;2024-03-06T10:34:13;8.53;;;3.97;;
21114;SDS011;10715;48.546;9.896;2024-03-06T10:36:38;6.90;;;4.43;;
21114;SDS011;10715;48.546;9.896;2024-03-06T10:39:05;8.57;;;4.87;;
21114;SDS011;10715;48.546;9.896;2024-03-06T10:41:35;5.43;;;3.47;;
21114;SDS011;10715;48.546;9.896;2024-03-06T10:44:05;7.27;;;3.90;;
21114;SDS011;10715;48.546;9.896;2024-03-06T10:46:38;6.23;;;4.80;;
21114;SDS011;10715;48.546;9.896;2024-03-06T10:49:08;8.67;;;5.97;;
21114;SDS011;10715;48.546;9.896;2024-03-06T10:51:37;5.80;;;4.83;;
21114;SDS011;10715;48.546;9.896;2024-03-06T10:54:08;6.47;;;5.87;;
21114;SDS011;10715;48.546;9.896;2024-03-06T10:56:37;13.83;;;6.10;;
21114;SDS011;10715;48.546;9.896;2024-03-06T10:59:06;9.50;;;6.77;;
21114;SDS011;10715;48.546;9.896;2024-03-06T11:01:39;5.70;;;4.40;;
21114;SDS011;10715;48.546;9.896;2024-03-06T11:04:08;9.23;;;7.63;;
21114;SDS011;10715;48.546;9.896;2024-03-06T11:06:34;10.40;;;6.50;;
21114;SDS011;10715;48.546;9.896;2024-03-06T11:09:01;8.80;;;7.00;;
21114;SDS011;10715;48.546;9.896;2024-03-06T11:11:28;11.67;;;7.40;;
21114;SDS011;10715;48.546;9.896;2024-03-06T11:14:01;5.40;;;4.30;;
21114;SDS011;10715;48.546;9.896;2024-03-06T11:16:30;8.83;;;7.93;;
21114;SDS011;10715;48.546;9.896;2024-03-06T11:19:07;10.40;;;7.30;;
21114;SDS011;10715;48.546;9.896;2024-03-06T11:21:34;8.00;;;6.50;;
21114;SDS011;10715;48.546;9.896;2024-03-06T11:24:19;10.53;;;6.70;;
21114;SDS011;10715;48.546;9.896;2024-03-06T11:26:50;7.10;;;5.63;;
21114;SDS011;10715;48.546;9.896;2024-03-06T11:29:27;7.00;;;6.03;;
21114;SDS011;10715;48.546;9.896;2024-03-06T11:32:01;7.90;;;5.37;;
21114;SDS011;10715;48.546;9.896;2024-03-06T11:34:34;14.50;;;6.80;;
21114;SDS011;10715;48.546;9.896;2024-03-06T11:37:03;10.50;;;6.10;;
21114;SDS011;10715;48.546;9.896;2024-03-06T11:39:34;9.00;;;7.63;;
21114;SDS011;10715;48.546;9.896;2024-03-06T11:42:01;8.03;;;6.13;;
21114;SDS011;10715;48.546;9.896;2024-03-06T11:44:27;9.70;;;5.77;;
21114;SDS011;10715;48.546;9.896;2024-03-06T11:49:30;5.80;;;5.03;;
21114;SDS011;10715;48.546;9.896;2024-03-06T11:52:03;5.60;;;5.07;;
21114;SDS011;10715;48.546;9.896;2024-03-06T11:54:30;6.33;;;5.30;;
21114;SDS011;10715;48.546;9.896;2024-03-06T11:56:58;9.27;;;5.60;;
21114;SDS011;10715;48.546;9.896;2024-03-06T12:01:55;5.37;;;4.87;;
21114;SDS011;10715;48.546;9.896;2024-03-06T12:04:26;8.83;;;4.50;;
21114;SDS011;10715;48.546;9.896;2024-03-06T12:06:55;10.03;;;7.77;;
21114;SDS011;10715;48.546;9.896;2024-03-06T12:09:25;7.10;;;6.10;;
21114;SDS011;10715;48.546;9.896;2024-03-06T12:11:51;4.43;;;4.03;;
21114;SDS011;10715;48.546;9.896;2024-03-06T12:14:18;5.60;;;3.90;;
21114;SDS011;10715;48.546;9.896;2024-03-06T12:16:54;10.50;;;5.30;;
21114;SDS011;10715;48.546;9.896;2024-03-06T12:19:27;7.20;;;5.00;;
21114;SDS011;10715;48.546;9.896;2024-03-06T12:22:04;8.43;;;5.30;;
21114;SDS011;10715;48.546;9.896;2024-03-06T12:24:31;8.73;;;6.37;;
21114;SDS011;10715;48.546;9.896;2024-03-06T12:27:01;7.00;;;5.33;;
21114;SDS011;10715;48.546;9.896;2024-03-06T12:29:29;7.27;;;5.17;;
21114;SDS011;10715;48.546;9.896;2024-03-06T12:31:59;9.67;;;5.90;;
21114;SDS011;10715;48.546;9.896;2024-03-06T12:34:26;10.53;;;6.50;;
21114;SDS011;10715;48.546;9.896;2024-03-06T12:36:52;9.70;;;7.13;;
21114;SDS011;10715;48.546;9.896;2024-03-06T12:39:18;7.27;;;6.13;;
21114;SDS011;10715;48.546;9.896;2024-03-06T12:41:46;8.90;;;7.40;;
21114;SDS011;10715;48.546;9.896;2024-03-06T12:44:12;8.43;;;5.70;;
21114;SDS011;10715;48.546;9.896;2024-03-06T12:46:40;8.80;;;6.67;;
21114;SDS011;10715;48.546;9.896;2024-03-06T12:49:05;6.53;;;5.83;;
21114;SDS011;10715;48.546;9.896;2024-03-06T12:51:31;5.40;;;4.87;;
21114;SDS011;10715;48.546;9.896;2024-03-06T12:53:57;4.33;;;3.83;;
21114;SDS011;10715;48.546;9.896;2024-03-06T12:56:23;9.07;;;3.63;;
21114;SDS011;10715;48.546;9.896;2024-03-06T12:58:50;5.20;;;3.83;;
21114;SDS011;10715;48.546;9.896;2024-03-06T13:01:16;7.50;;;4.27;;
21114;SDS011;10715;48.546;9.896;2024-03-06T13:03:42;6.20;;;3.20;;
21114;SDS011;10715;48.546;9.896;2024-03-06T13:06:08;5.50;;;3.60;;
21114;SDS011;10715;48.546;9.896;2024-03-06T13:08:34;4.17;;;3.57;;
21114;SDS011;10715;48.546;9.896;2024-03-06T13:10:59;5.93;;;4.27;;
21114;SDS011;10715;48.546;9.896;2024-03-06T13:13:25;4.63;;;2.97;;
21114;SDS011;10715;48.546;9.896;2024-03-06T13:15:53;6.40;;;5.07;;
21114;SDS011;10715;48.546;9.896;2024-03-06T13:18:19;7.83;;;4.77;;
21114;SDS011;10715;48.546;9.896;2024-03-06T13:20:45;6.20;;;4.10;;
21114;SDS011;10715;48.546;9.896;2024-03-06T13:23:11;7.23;;;4.07;;
21114;SDS011;10715;48.546;9.896;2024-03-06T13:25:37;9.50;;;4.77;;
21114;SDS011;10715;48.546;9.896;2024-03-06T13:28:03;6.80;;;5.70;;
21114;SDS011;10715;48.546;9.896;2024-03-06T13:30:30;6.33;;;4.57;;
21114;SDS011;10715;48.546;9.896;2024-03-06T13:32:56;5.70;;;4.80;;
21114;SDS011;10715;48.546;9.896;2024-03-06T13:35:22;8.37;;;5.03;;
21114;SDS011;10715;48.546;9.896;2024-03-06T13:37:47;5.47;;;4.00;;
21114;SDS011;10715;48.546;9.896;2024-03-06T13:40:16;5.40;;;3.60;;
21114;SDS011;10715;48.546;9.896;2024-03-06T13:42:43;6.60;;;3.37;;
21114;SDS011;10715;48.546;9.896;2024-03-06T13:45:09;6.23;;;4.53;;
21114;SDS011;10715;48.546;9.896;2024-03-06T13:47:40;8.10;;;5.03;;
21114;SDS011;10715;48.546;9.896;2024-03-06T13:50:10;8.00;;;5.10;;
21114;SDS011;10715;48.546;9.896;2024-03-06T13:52:37;5.30;;;4.13;;
21114;SDS011;10715;48.546;9.896;2024-03-06T13:55:03;11.20;;;7.03;;
21114;SDS011;10715;48.546;9.896;2024-03-06T13:57:32;5.77;;;4.90;;
21114;SDS011;10715;48.546;9.896;2024-03-06T14:00:05;7.10;;;4.80;;
21114;SDS011;10715;48.546;9.896;2024-03-06T14:02:37;4.93;;;4.20;;
21114;SDS011;10715;48.546;9.896;2024-03-06T14:05:04;7.80;;;5.10;;
21114;SDS011;10715;48.546;9.896;2024-03-06T14:07:30;5.57;;;4.63;;
21114;SDS011;10715;48.546;9.896;2024-03-06T14:09:56;6.20;;;5.27;;
21114;SDS011;10715;48.546;9.896;2024-03-06T14:12:22;3.70;;;3.40;;
21114;SDS011;10715;48.546;9.896;2024-03-06T14:14:51;6.27;;;3.77;;
21114;SDS011;10715;48.546;9.896;2024-03-06T14:17:17;7.73;;;3.80;;
21114;SDS011;10715;48.546;9.896;2024-03-06T14:19:43;8.93;;;3.23;;
21114;SDS011;10715;48.546;9.896;2024-03-06T14:22:10;4.00;;;3.67;;
21114;SDS011;10715;48.546;9.896;2024-03-06T14:24:36;5.03;;;2.70;;
21114;SDS011;10715;48.546;9.896;2024-03-06T14:27:02;5.10;;;4.33;;
21114;SDS011;10715;48.546;9.896;2024-03-06T14:29:31;3.23;;;2.93;;
21114;SDS011;10715;48.546;9.896;2024-03-06T14:31:57;3.37;;;2.83;;
21114;SDS011;10715;48.546;9.896;2024-03-06T14:34:23;3.70;;;3.47;;
21114;SDS011;10715;48.546;9.896;2024-03-06T14:36:52;4.97;;;3.93;;
21114;SDS011;10715;48.546;9.896;2024-03-06T14:39:18;3.00;;;2.80;;
21114;SDS011;10715;48.546;9.896;2024-03-06T14:41:47;5.60;;;3.63;;
21114;SDS011;10715;48.546;9.896;2024-03-06T14:44:13;6.70;;;3.30;;
21114;SDS011;10715;48.546;9.896;2024-03-06T14:46:42;3.27;;;3.07;;